Bookmark and Share
Track history (hours):
 

Leander

Last reported at 2012-Jun-11 21:30 UTC. Time now 2014-Apr-24 20:01 UTC.
Position N 36°33' W 003°33'.
Warning: this ship's position is years out of date!

Length 15 m.

Type: Sailing vessel. MMSI: 211480070.

NotesDate/timePositionNaut miles runAvg speedWind from/ knotsBaromVisibWave heightAir tempDewpointWater temp
2012-Jun-11 21:30N 36°33' W 003°33'18 9.3
2012-Jun-11 19:32N 36°38' W 003°55'10 9.1
2012-Jun-11 18:26N 36°40' W 004°08'56 1.6
2012-Jun-10 06:28N 36°13' W 005°08'6 6.0
2012-Jun-10 05:32N 36°09' W 005°14'6 6.0
2012-Jun-10 04:36N 36°06' W 005°20'3 2.6
2012-Jun-10 03:33N 36°06' W 005°23'7 6.5
2012-Jun-10 02:32N 36°02' W 005°29'9 8.4
2012-Jun-10 01:29N 36°00' W 005°40'6 6.5
2012-Jun-10 00:33N 36°01' W 005°48'  
2012-Jun-07 02:33N 37°34' W 009°04'6 5.9
2012-Jun-07 01:33N 37°40' W 009°02'6 6.1
2012-Jun-07 00:34N 37°46' W 009°04'6 5.8
2012-Jun-06 23:33N 37°52' W 009°06'6 5.8
2012-Jun-06 22:33N 37°57' W 009°08'5 5.0
2012-Jun-06 21:33N 38°02' W 009°11'5 4.9
2012-Jun-06 20:32N 38°07' W 009°12'6 5.7
2012-Jun-06 19:33N 38°12' W 009°14'5 5.2
2012-Jun-06 18:34N 38°17' W 009°16'6 5.9
2012-Jun-06 17:33N 38°23' W 009°17'6 5.7
2012-Jun-06 16:33N 38°28' W 009°18'6 5.9
2012-Jun-06 15:33N 38°34' W 009°21'5 5.5
2012-Jun-06 14:33N 38°39' W 009°24'3 3.0
2012-Jun-06 13:33N 38°42' W 009°25'0 0.3
2012-Jun-06 12:32N 38°41' W 009°25'0 0.0
2012-Jun-06 11:31N 38°41' W 009°25'0 0.0
2012-Jun-06 10:34N 38°41' W 009°25'0 0.0
2012-Jun-05 19:33N 38°41' W 009°25'0 0.1
2012-Jun-05 18:32N 38°42' W 009°25'0 0.0
2012-Jun-05 17:32N 38°42' W 009°25'1 1.2
2012-Jun-05 16:33N 38°41' W 009°26'5 5.2
2012-Jun-05 15:33N 38°44' W 009°31'270 5.9
2012-Jun-03 17:27N 43°14' W 009°08'5 5.2
2012-Jun-03 16:33N 43°16' W 009°02'7 7.0
2012-Jun-03 15:33N 43°22' W 008°57'3 3.4
2012-Jun-03 14:33N 43°23' W 008°53'5 5.1
2012-Jun-03 13:33N 43°22' W 008°46'5 5.4
2012-Jun-03 12:33N 43°23' W 008°39'6 5.8
2012-Jun-03 11:33N 43°24' W 008°31'  

Dump ship's entire track history

sailing weather and tide predictions

Leander — DD5959 — position and weather